Time;durP1;ratioP1;P1;durP2;ratioP2;P2;SDS_P1;SDS_P2;PMS_P1;PMS_P2;Temp;Humidity;BMP_temperature;BMP_pressure;BME280_temperature;BME280_humidity;BME280_pressure;Samples;Min_cycle;Max_cycle;Signal;HPM_P1;HPM_P2
2022/06/09 00:01:06;;;;;;;22.88;3.28;;;16.60;99.90;;;;;;4939629;29;20016;-87
2022/06/09 00:03:40;;;;;;;18.55;2.78;;;16.60;99.90;;;;;;4928252;29;20028;-88
2022/06/09 00:06:09;;;;;;;21.38;4.07;;;16.60;99.90;;;;;;4928087;29;20024;-88
2022/06/09 00:08:37;;;;;;;20.60;3.50;;;16.70;99.90;;;;;;4927927;29;20031;-88
2022/06/09 00:11:06;;;;;;;17.35;3.03;;;16.60;99.90;;;;;;4928007;29;20016;-88
2022/06/09 00:13:33;;;;;;;25.75;4.10;;;16.60;99.90;;;;;;4928134;29;20203;-88
2022/06/09 00:15:59;;;;;;;21.55;3.22;;;16.60;99.90;;;;;;4927974;29;20047;-88
2022/06/09 00:18:25;;;;;;;30.38;3.22;;;16.60;99.90;;;;;;4927559;29;20028;-88
2022/06/09 00:20:51;;;;;;;20.67;2.92;;;16.60;99.90;;;;;;4927281;29;20324;-88
2022/06/09 00:23:17;;;;;;;31.45;3.97;;;16.60;99.90;;;;;;4926237;29;20020;-88
2022/06/09 00:25:43;;;;;;;24.60;3.85;;;16.70;99.90;;;;;;4925523;29;20276;-87
2022/06/09 00:28:09;;;;;;;18.38;2.95;;;16.50;99.90;;;;;;4927573;29;20052;-88
2022/06/09 00:30:35;;;;;;;23.67;2.80;;;16.50;99.90;;;;;;4919794;29;20027;-88
2022/06/09 00:33:01;;;;;;;24.65;3.20;;;16.60;99.90;;;;;;4927527;29;20074;-88
2022/06/09 00:35:27;;;;;;;19.15;3.28;;;16.60;99.90;;;;;;4924295;29;20282;-87
2022/06/09 00:38:02;;;;;;;21.23;3.30;;;16.60;99.90;;;;;;4924326;29;20224;-89
2022/06/09 00:40:28;;;;;;;19.13;2.83;;;16.60;99.90;;;;;;4927377;29;20016;-88
2022/06/09 00:42:53;;;;;;;23.50;3.03;;;16.60;99.90;;;;;;4925800;29;20028;-87
2022/06/09 00:45:34;;;;;;;15.75;2.92;;;16.60;99.90;;;;;;4938909;29;20020;-88
2022/06/09 00:48:12;;;;;;;21.63;3.83;;;16.60;99.90;;;;;;4922232;29;20056;-87
2022/06/09 00:50:40;;;;;;;20.63;2.90;;;16.60;99.90;;;;;;4927324;29;20376;-88
2022/06/09 00:53:18;;;;;;;22.15;3.55;;;16.70;99.90;;;;;;4926827;29;20036;-88
2022/06/09 00:55:44;;;;;;;19.02;2.72;;;16.70;99.90;;;;;;4925937;29;20087;-88
2022/06/09 00:58:15;;;;;;;26.63;3.05;;;16.70;99.90;;;;;;4926156;29;20030;-88
2022/06/09 01:00:51;;;;;;;18.67;2.72;;;16.80;99.90;;;;;;4926609;29;20027;-88
2022/06/09 01:03:21;;;;;;;14.88;2.47;;;16.80;99.90;;;;;;4925792;29;20248;-88
2022/06/09 01:05:48;;;;;;;17.63;3.50;;;16.80;99.90;;;;;;4927035;29;20024;-88
2022/06/09 01:08:15;;;;;;;17.63;3.10;;;16.90;99.90;;;;;;4940923;29;20223;-88
2022/06/09 01:10:41;;;;;;;17.35;2.67;;;16.90;99.90;;;;;;4925615;29;20328;-89
2022/06/09 01:13:06;;;;;;;24.73;4.10;;;16.90;99.90;;;;;;4926490;29;20039;-88
2022/06/09 01:15:44;;;;;;;24.08;3.97;;;16.90;99.90;;;;;;4926469;29;20028;-89
2022/06/09 01:18:24;;;;;;;26.85;3.30;;;16.90;99.90;;;;;;4941367;29;20501;-88
2022/06/09 01:20:58;;;;;;;21.65;3.13;;;17.00;99.90;;;;;;4921697;29;20032;-88
2022/06/09 01:23:49;;;;;;;15.50;3.30;;;17.00;99.90;;;;;;4925752;29;20023;-88
2022/06/09 01:26:39;;;;;;;17.30;2.55;;;17.00;99.90;;;;;;4925891;29;20047;-89
2022/06/09 01:29:22;;;;;;;25.70;2.97;;;17.00;99.90;;;;;;4926011;29;20028;-88
2022/06/09 01:31:59;;;;;;;23.55;3.42;;;17.00;99.90;;;;;;4926054;29;20058;-88
2022/06/09 01:34:42;;;;;;;25.17;3.85;;;17.00;99.90;;;;;;4956762;29;20024;-88
2022/06/09 01:37:15;;;;;;;19.08;2.75;;;17.10;99.90;;;;;;4919247;29;20027;-89
2022/06/09 01:39:54;;;;;;;29.23;3.65;;;17.10;99.90;;;;;;4925839;29;20099;-89
2022/06/09 01:42:23;;;;;;;20.30;2.92;;;17.10;99.90;;;;;;4926399;29;20019;-88
2022/06/09 01:44:50;;;;;;;20.25;3.47;;;17.10;99.90;;;;;;4923911;29;20261;-88
2022/06/09 01:47:19;;;;;;;19.40;2.95;;;17.10;99.90;;;;;;4922362;29;20038;-88
2022/06/09 01:49:45;;;;;;;20.13;3.33;;;17.00;99.90;;;;;;4925794;29;20012;-89
2022/06/09 01:52:11;;;;;;;28.70;3.17;;;17.00;99.90;;;;;;4924285;29;20319;-88
2022/06/09 01:54:39;;;;;;;21.33;3.70;;;17.10;99.90;;;;;;4925118;29;20031;-88
2022/06/09 01:57:10;;;;;;;19.50;3.25;;;17.10;99.90;;;;;;4924262;29;20024;-88
2022/06/09 01:59:46;;;;;;;19.45;2.78;;;17.10;99.90;;;;;;4925262;29;20101;-88
2022/06/09 02:02:26;;;;;;;17.92;2.72;;;17.10;99.90;;;;;;4925945;29;20035;-88
2022/06/09 02:04:57;;;;;;;17.77;2.97;;;17.00;99.90;;;;;;4923190;29;20020;-88
2022/06/09 02:07:26;;;;;;;18.65;3.13;;;17.00;99.90;;;;;;4925258;29;20244;-88
2022/06/09 02:09:52;;;;;;;14.80;2.90;;;17.00;99.90;;;;;;4925589;29;20032;-88
2022/06/09 02:12:22;;;;;;;19.60;3.53;;;17.00;99.90;;;;;;4922916;29;20047;-89
2022/06/09 02:14:54;;;;;;;21.50;3.10;;;17.00;99.90;;;;;;4925428;29;20068;-88
2022/06/09 02:17:20;;;;;;;22.60;3.40;;;17.00;99.90;;;;;;4925769;29;20023;-88
2022/06/09 02:19:48;;;;;;;19.00;2.85;;;17.00;99.90;;;;;;4925676;29;20020;-88
2022/06/09 02:22:14;;;;;;;23.48;3.55;;;17.00;99.90;;;;;;4920668;29;20031;-88
2022/06/09 02:24:40;;;;;;;18.65;3.22;;;17.00;99.90;;;;;;4923887;29;20028;-88
2022/06/09 02:27:06;;;;;;;17.98;3.30;;;17.00;99.90;;;;;;4925076;29;20112;-88
2022/06/09 02:29:32;;;;;;;24.67;2.95;;;17.00;99.90;;;;;;4925225;29;20216;-89
2022/06/09 02:31:58;;;;;;;19.15;2.83;;;17.00;99.90;;;;;;4927924;29;20044;-88
2022/06/09 02:34:24;;;;;;;16.67;2.88;;;17.00;99.90;;;;;;4926226;29;20052;-88
2022/06/09 02:36:50;;;;;;;19.77;3.08;;;17.00;99.90;;;;;;4923613;29;20220;-88
2022/06/09 02:39:16;;;;;;;18.42;3.65;;;17.00;99.90;;;;;;4919501;29;20025;-88
2022/06/09 02:41:42;;;;;;;18.17;2.90;;;17.00;99.90;;;;;;4920854;29;20021;-89
2022/06/09 02:44:07;;;;;;;17.23;2.78;;;17.00;99.90;;;;;;4925223;29;20095;-88
2022/06/09 02:46:33;;;;;;;27.50;3.83;;;16.90;99.90;;;;;;4924774;29;20028;-88
2022/06/09 02:49:00;;;;;;;23.42;3.08;;;17.00;99.90;;;;;;4924740;29;20059;-88
2022/06/09 02:51:31;;;;;;;19.90;3.72;;;17.00;99.90;;;;;;4923358;29;20223;-88
2022/06/09 02:54:00;;;;;;;25.20;3.63;;;17.00;99.90;;;;;;4939636;29;20032;-88
2022/06/09 02:56:26;;;;;;;18.50;2.45;;;17.00;99.90;;;;;;4925010;29;20107;-88
2022/06/09 02:58:52;;;;;;;19.27;3.40;;;17.00;99.90;;;;;;4925106;29;20032;-86
2022/06/09 03:01:19;;;;;;;16.58;2.70;;;17.00;99.90;;;;;;4939425;29;20028;-88
2022/06/09 03:03:45;;;;;;;14.27;3.15;;;17.00;99.90;;;;;;4917650;29;20505;-90
2022/06/09 03:06:11;;;;;;;22.23;3.88;;;17.00;99.90;;;;;;4924972;29;20024;-88
2022/06/09 03:08:37;;;;;;;15.07;3.00;;;17.00;99.90;;;;;;4924733;29;20020;-88
2022/06/09 03:11:04;;;;;;;21.33;3.85;;;17.00;99.90;;;;;;4924437;29;20036;-88
2022/06/09 03:13:30;;;;;;;21.77;3.45;;;17.00;99.90;;;;;;4923750;29;20115;-88
2022/06/09 03:15:55;;;;;;;23.45;4.10;;;17.00;99.90;;;;;;4924621;29;20090;-88
2022/06/09 03:18:21;;;;;;;20.40;3.05;;;17.00;99.90;;;;;;4923974;29;20095;-89
2022/06/09 03:20:48;;;;;;;29.85;3.90;;;17.00;99.90;;;;;;4923013;29;20016;-89
2022/06/09 03:23:14;;;;;;;27.00;3.47;;;17.00;99.90;;;;;;4923936;29;20343;-88
2022/06/09 03:25:43;;;;;;;18.63;3.03;;;17.00;99.90;;;;;;4924184;29;20128;-88
2022/06/09 03:28:09;;;;;;;20.75;3.75;;;17.00;99.90;;;;;;4936983;29;20032;-88
2022/06/09 03:30:35;;;;;;;21.27;4.13;;;17.00;99.90;;;;;;4921190;29;20375;-88
2022/06/09 03:33:01;;;;;;;19.00;2.67;;;17.00;99.90;;;;;;4924643;29;20063;-88
2022/06/09 03:35:27;;;;;;;21.80;3.45;;;17.00;99.90;;;;;;4923864;29;20212;-89
2022/06/09 03:37:52;;;;;;;21.90;3.97;;;17.00;99.90;;;;;;4928080;29;20035;-89
2022/06/09 03:40:20;;;;;;;20.90;3.15;;;17.00;99.90;;;;;;4928622;29;20035;-88
2022/06/09 03:42:46;;;;;;;20.33;3.47;;;17.00;99.90;;;;;;4924428;29;20222;-87
2022/06/09 03:45:12;;;;;;;22.52;3.72;;;17.00;99.90;;;;;;4927047;29;20189;-88
2022/06/09 03:47:39;;;;;;;30.42;4.05;;;17.00;99.90;;;;;;4928003;29;20223;-87
2022/06/09 03:50:07;;;;;;;26.08;3.72;;;17.00;99.90;;;;;;4927911;29;20020;-87
2022/06/09 03:52:33;;;;;;;23.88;4.32;;;17.00;99.90;;;;;;4928130;29;20039;-87
2022/06/09 03:54:59;;;;;;;18.35;3.50;;;17.10;99.90;;;;;;4928266;29;20047;-88
2022/06/09 03:57:25;;;;;;;24.50;3.88;;;17.10;99.90;;;;;;4928265;29;20043;-86
2022/06/09 03:59:51;;;;;;;17.20;2.75;;;17.10;99.90;;;;;;4927840;29;20044;-88
2022/06/09 04:02:17;;;;;;;18.25;3.38;;;17.10;99.90;;;;;;4927530;29;20087;-88
2022/06/09 04:04:43;;;;;;;23.98;3.15;;;17.10;99.90;;;;;;4927611;29;20024;-89
2022/06/09 04:07:11;;;;;;;20.83;3.47;;;17.00;99.90;;;;;;4928067;29;20028;-88
2022/06/09 04:09:37;;;;;;;17.00;3.28;;;17.00;99.90;;;;;;4928213;29;20016;-88
2022/06/09 04:12:03;;;;;;;23.17;3.67;;;17.00;99.90;;;;;;4927424;29;20027;-88
2022/06/09 04:14:29;;;;;;;21.50;3.38;;;17.00;99.90;;;;;;4927667;29;20063;-88
2022/06/09 04:16:55;;;;;;;19.85;3.13;;;17.00;99.90;;;;;;4927993;29;20020;-88
2022/06/09 04:19:22;;;;;;;20.90;3.30;;;17.00;99.90;;;;;;4927230;29;20055;-89
2022/06/09 04:21:49;;;;;;;22.27;3.38;;;17.00;99.90;;;;;;4923468;29;20028;-88
2022/06/09 04:24:15;;;;;;;27.90;4.32;;;17.10;99.90;;;;;;4927810;29;20028;-88
2022/06/09 04:26:42;;;;;;;17.58;3.30;;;17.00;99.90;;;;;;4926991;29;20185;-88
2022/06/09 04:29:11;;;;;;;18.55;3.40;;;17.00;99.90;;;;;;4927441;29;20032;-88
2022/06/09 04:31:38;;;;;;;26.70;4.78;;;17.10;99.90;;;;;;4927495;29;20111;-83
2022/06/09 04:34:04;;;;;;;22.40;3.20;;;17.10;99.90;;;;;;4925384;29;20577;-85
2022/06/09 04:36:30;;;;;;;25.52;3.92;;;17.10;99.90;;;;;;4916488;29;20099;-84
2022/06/09 04:38:56;;;;;;;18.92;3.25;;;17.00;99.90;;;;;;4916380;29;20040;-84
2022/06/09 04:41:22;;;;;;;20.63;3.35;;;17.10;99.90;;;;;;4917165;29;20024;-85
2022/06/09 04:43:48;;;;;;;20.98;4.10;;;17.10;99.90;;;;;;4914693;29;20028;-85
2022/06/09 04:46:17;;;;;;;17.30;4.68;;;17.20;99.90;;;;;;4925031;29;20016;-84
2022/06/09 04:48:43;;;;;;;20.27;2.75;;;17.20;99.90;;;;;;4910839;29;20033;-84
2022/06/09 04:51:10;;;;;;;21.67;3.25;;;17.20;99.90;;;;;;4921550;29;20094;-85
2022/06/09 04:53:37;;;;;;;23.38;4.13;;;17.20;99.90;;;;;;4914993;29;20126;-85
2022/06/09 04:56:03;;;;;;;23.23;3.42;;;17.20;99.90;;;;;;4916976;29;20213;-84
2022/06/09 04:58:29;;;;;;;22.15;3.90;;;17.20;99.90;;;;;;4937272;29;20192;-84
2022/06/09 05:00:54;;;;;;;22.83;3.95;;;17.30;99.90;;;;;;4926451;29;20096;-84
2022/06/09 05:03:20;;;;;;;20.92;3.42;;;17.30;99.90;;;;;;4925329;29;20028;-84
2022/06/09 05:05:48;;;;;;;17.88;2.90;;;17.40;99.90;;;;;;4923696;29;20030;-84
2022/06/09 05:08:14;;;;;;;20.88;3.25;;;17.40;99.90;;;;;;4935115;29;20026;-84
2022/06/09 05:10:41;;;;;;;14.88;2.92;;;17.30;99.90;;;;;;4925657;29;20399;-84
2022/06/09 05:13:08;;;;;;;21.08;3.08;;;17.30;99.90;;;;;;4939879;29;20224;-84
2022/06/09 05:15:37;;;;;;;20.30;2.85;;;17.30;99.90;;;;;;4923327;29;20051;-84
2022/06/09 05:18:04;;;;;;;25.13;4.13;;;17.20;99.90;;;;;;4941005;29;20400;-84
2022/06/09 05:20:30;;;;;;;16.50;3.13;;;17.20;99.90;;;;;;4940812;29;20024;-84
2022/06/09 05:22:58;;;;;;;15.38;2.80;;;17.10;99.90;;;;;;4924704;29;20313;-84
2022/06/09 05:25:24;;;;;;;18.35;3.90;;;17.10;99.90;;;;;;4926707;29;20012;-84
2022/06/09 05:27:50;;;;;;;14.05;3.08;;;17.10;99.90;;;;;;4926021;29;20324;-84
2022/06/09 05:30:20;;;;;;;18.13;3.15;;;17.00;99.90;;;;;;4926106;29;20008;-84
2022/06/09 05:32:46;;;;;;;24.67;3.28;;;17.10;99.90;;;;;;4925032;29;20258;-85
2022/06/09 05:35:12;;;;;;;16.98;3.00;;;17.10;99.90;;;;;;4926861;29;20032;-84
2022/06/09 05:45:57;;;;;;;17.98;3.28;;;17.00;99.90;;;;;;4926307;29;20064;-84
2022/06/09 05:48:23;;;;;;;16.95;3.10;;;17.10;99.90;;;;;;4917913;29;20024;-84
2022/06/09 05:50:50;;;;;;;22.35;2.90;;;17.00;99.90;;;;;;4925677;29;20089;-84
2022/06/09 05:53:16;;;;;;;22.20;3.78;;;17.10;99.90;;;;;;4924844;29;20040;-84
2022/06/09 05:55:42;;;;;;;20.20;3.30;;;17.00;99.90;;;;;;4925320;29;20370;-84
2022/06/09 05:58:08;;;;;;;18.13;2.72;;;17.10;99.90;;;;;;4903418;29;20507;-85
2022/06/09 06:00:34;;;;;;;19.05;3.55;;;17.10;99.90;;;;;;4914146;29;20040;-84
2022/06/09 06:03:00;;;;;;;15.95;3.17;;;17.10;99.90;;;;;;4914792;29;20239;-84
2022/06/09 06:08:09;;;;;;;22.98;4.40;;;17.30;99.90;;;;;;4914666;29;20390;-84
2022/06/09 06:10:35;;;;;;;26.90;3.40;;;17.30;99.90;;;;;;4910262;29;20029;-85
2022/06/09 06:13:01;;;;;;;20.02;3.13;;;17.30;99.90;;;;;;4912214;29;20044;-85
2022/06/09 06:15:26;;;;;;;18.90;4.30;;;17.20;99.90;;;;;;4914383;29;20024;-84
2022/06/09 06:17:54;;;;;;;22.70;4.95;;;17.20;99.90;;;;;;4929174;29;20036;-84
2022/06/09 06:20:20;;;;;;;19.50;3.58;;;17.10;99.90;;;;;;4914559;29;20027;-84
2022/06/09 06:22:46;;;;;;;19.90;3.53;;;17.10;99.90;;;;;;4927381;29;20121;-84
2022/06/09 06:25:12;;;;;;;25.70;3.22;;;17.20;99.90;;;;;;4912882;29;20030;-84
2022/06/09 06:27:38;;;;;;;20.40;4.03;;;17.20;99.90;;;;;;4912770;29;20028;-84
2022/06/09 06:30:05;;;;;;;22.92;3.10;;;17.20;99.90;;;;;;4913148;29;20020;-84
2022/06/09 06:32:31;;;;;;;22.88;3.55;;;17.30;99.90;;;;;;4913442;29;20203;-85
2022/06/09 06:34:56;;;;;;;20.25;3.92;;;17.50;99.90;;;;;;4914286;29;20244;-84
2022/06/09 06:37:23;;;;;;;20.90;3.47;;;17.60;99.90;;;;;;4909676;29;20474;-85
2022/06/09 06:39:49;;;;;;;14.65;3.08;;;17.60;99.90;;;;;;4914391;29;20020;-84
2022/06/09 06:42:15;;;;;;;21.08;2.80;;;17.80;99.90;;;;;;4914202;29;20145;-84
2022/06/09 06:44:41;;;;;;;13.45;2.40;;;17.80;99.90;;;;;;4914044;29;20032;-84
2022/06/09 06:47:07;;;;;;;19.58;2.63;;;17.90;99.90;;;;;;4914247;29;20379;-84
2022/06/09 06:49:32;;;;;;;22.30;3.50;;;17.80;99.90;;;;;;4914033;29;20483;-84
2022/06/09 06:51:58;;;;;;;23.63;3.97;;;17.70;99.90;;;;;;4907740;29;20489;-85
2022/06/09 06:54:24;;;;;;;21.98;3.47;;;17.60;99.90;;;;;;4909538;29;20023;-85
2022/06/09 06:56:49;;;;;;;22.83;3.20;;;17.70;99.90;;;;;;4912623;29;20020;-84
2022/06/09 06:59:15;;;;;;;18.85;3.38;;;17.80;99.90;;;;;;4913889;29;20385;-85
2022/06/09 07:01:41;;;;;;;19.15;3.88;;;17.90;99.90;;;;;;4913952;29;20103;-85
2022/06/09 07:04:06;;;;;;;12.57;2.00;;;18.00;99.90;;;;;;4913976;29;20028;-85
2022/06/09 07:06:32;;;;;;;19.35;2.42;;;18.00;99.90;;;;;;4913900;29;20192;-85
2022/06/09 07:08:58;;;;;;;19.65;2.90;;;18.00;99.90;;;;;;4913839;29;20032;-85
2022/06/09 07:11:23;;;;;;;28.42;4.03;;;18.00;99.90;;;;;;4913341;29;20023;-84
2022/06/09 07:13:49;;;;;;;17.42;2.90;;;18.10;99.90;;;;;;4908961;29;20096;-85
2022/06/09 07:16:15;;;;;;;18.30;3.03;;;18.20;99.90;;;;;;4909510;29;20185;-85
2022/06/09 07:18:41;;;;;;;22.02;3.35;;;18.20;99.90;;;;;;4912404;29;20252;-85
2022/06/09 07:21:07;;;;;;;21.63;2.65;;;18.20;99.90;;;;;;4944062;28;20630;-85
2022/06/09 07:23:33;;;;;;;21.90;3.10;;;18.30;99.90;;;;;;4913753;29;20081;-85
2022/06/09 07:26:01;;;;;;;20.83;3.78;;;18.30;99.90;;;;;;4913752;29;20433;-84
2022/06/09 07:28:27;;;;;;;20.85;2.78;;;18.40;99.90;;;;;;4928202;29;20020;-85
2022/06/09 07:30:56;;;;;;;15.10;2.50;;;18.50;99.90;;;;;;4913438;29;20032;-85
2022/06/09 07:33:24;;;;;;;12.50;2.75;;;18.60;99.90;;;;;;4913522;29;20035;-85
2022/06/09 07:35:52;;;;;;;17.10;2.45;;;18.80;99.90;;;;;;4913669;29;20023;-84
2022/06/09 07:38:18;;;;;;;15.00;3.55;;;18.80;99.90;;;;;;4913562;29;20437;-84
2022/06/09 07:40:44;;;;;;;18.50;3.30;;;18.80;99.90;;;;;;4913692;29;20537;-84
2022/06/09 07:43:10;;;;;;;18.17;2.67;;;18.80;99.90;;;;;;4913614;29;20107;-84
2022/06/09 07:45:36;;;;;;;26.08;2.63;;;18.60;99.90;;;;;;4913500;29;20155;-85
2022/06/09 07:48:04;;;;;;;15.98;2.75;;;18.50;99.90;;;;;;4913924;29;20028;-84
2022/06/09 07:50:31;;;;;;;21.77;2.53;;;18.40;99.90;;;;;;4913427;29;20020;-84
2022/06/09 07:52:57;;;;;;;20.35;2.47;;;18.50;99.90;;;;;;4909529;29;20577;-85
2022/06/09 07:55:24;;;;;;;19.80;3.35;;;18.50;99.90;;;;;;4913483;29;20028;-85
2022/06/09 07:57:50;;;;;;;15.20;3.28;;;18.60;99.90;;;;;;4913409;29;20493;-84
2022/06/09 08:00:18;;;;;;;12.35;2.55;;;18.50;99.90;;;;;;4913308;29;20482;-85
2022/06/09 08:02:44;;;;;;;12.10;2.70;;;18.60;99.90;;;;;;4913255;29;20032;-84
2022/06/09 08:05:11;;;;;;;14.77;3.70;;;18.60;99.90;;;;;;4913614;29;20063;-85
2022/06/09 08:07:37;;;;;;;14.25;2.47;;;18.80;99.90;;;;;;4907862;29;20051;-85
2022/06/09 08:10:05;;;;;;;15.32;2.67;;;18.80;99.90;;;;;;4905499;29;20396;-85
2022/06/09 08:12:31;;;;;;;16.20;3.15;;;18.90;99.90;;;;;;4913453;29;20040;-85
2022/06/09 08:14:56;;;;;;;13.68;2.50;;;18.90;99.90;;;;;;4912952;29;20095;-84
2022/06/09 08:17:22;;;;;;;14.40;2.17;;;18.90;99.90;;;;;;4913061;29;20115;-84
2022/06/09 08:19:48;;;;;;;14.70;2.53;;;18.90;99.90;;;;;;4913196;29;20107;-85
2022/06/09 08:22:15;;;;;;;15.25;2.60;;;18.90;99.90;;;;;;4914045;29;20430;-85
2022/06/09 08:24:42;;;;;;;16.08;2.83;;;18.90;99.90;;;;;;4916924;29;20028;-84
2022/06/09 08:27:07;;;;;;;13.63;2.17;;;18.90;99.90;;;;;;4916899;29;20079;-85
2022/06/09 08:29:33;;;;;;;12.63;2.17;;;18.90;99.90;;;;;;4916395;29;20032;-85
2022/06/09 08:31:59;;;;;;;14.50;1.88;;;18.80;99.90;;;;;;4908968;29;20131;-85
2022/06/09 08:34:26;;;;;;;17.98;2.65;;;18.90;99.90;;;;;;4916273;29;20442;-85
2022/06/09 08:36:52;;;;;;;14.05;2.38;;;18.90;99.90;;;;;;4916126;29;20144;-85
2022/06/09 08:39:18;;;;;;;14.85;2.30;;;18.90;99.90;;;;;;4914887;29;20087;-85
2022/06/09 08:41:53;;;;;;;16.17;3.42;;;18.90;99.90;;;;;;4916134;29;20024;-85
2022/06/09 08:44:40;;;;;;;12.82;2.42;;;18.90;99.90;;;;;;4911789;29;20562;-85
2022/06/09 08:47:08;;;;;;;13.23;2.20;;;19.10;99.90;;;;;;4913982;29;20032;-85
2022/06/09 08:50:12;;;;;;;10.05;2.08;;;19.20;99.90;;;;;;4916169;29;20020;-84
2022/06/09 08:52:53;;;;;;;17.85;2.53;;;19.10;99.90;;;;;;4904932;29;22004;-84
2022/06/09 08:55:35;;;;;;;15.80;2.67;;;19.10;99.90;;;;;;4909910;29;20035;-84
2022/06/09 08:58:14;;;;;;;16.05;2.90;;;19.10;99.90;;;;;;4915731;29;20075;-85
2022/06/09 09:01:08;;;;;;;15.40;2.40;;;19.20;99.90;;;;;;4915686;29;20107;-85
2022/06/09 09:03:37;;;;;;;13.07;2.20;;;19.20;99.90;;;;;;4908567;29;20071;-85
2022/06/09 09:06:35;;;;;;;18.75;2.75;;;19.30;99.90;;;;;;4915627;29;20393;-85
2022/06/09 09:09:17;;;;;;;11.02;2.38;;;19.30;99.90;;;;;;4928809;29;20521;-84
2022/06/09 09:11:50;;;;;;;15.48;2.53;;;19.30;99.90;;;;;;4915439;29;20024;-84
2022/06/09 09:14:36;;;;;;;13.82;2.10;;;19.30;99.90;;;;;;4921291;29;20123;-85
2022/06/09 09:17:34;;;;;;;17.85;3.10;;;19.40;99.90;;;;;;4913612;29;20119;-85
2022/06/09 09:20:00;;;;;;;13.77;2.33;;;19.40;99.90;;;;;;4915439;29;20052;-85
2022/06/09 09:22:52;;;;;;;13.23;2.30;;;19.50;99.90;;;;;;4914293;29;20028;-85
2022/06/09 09:25:41;;;;;;;15.30;2.95;;;19.60;99.90;;;;;;4929923;29;20051;-84
2022/06/09 09:28:30;;;;;;;12.82;2.13;;;19.80;99.90;;;;;;4915570;29;20114;-84
2022/06/09 09:31:04;;;;;;;17.40;2.78;;;19.80;99.90;;;;;;4911379;29;20489;-85
2022/06/09 09:33:30;;;;;;;15.45;2.33;;;19.90;99.90;;;;;;4915027;29;20505;-85
2022/06/09 09:36:03;;;;;;;18.02;3.10;;;19.90;99.90;;;;;;4915395;29;20502;-85
2022/06/09 09:38:42;;;;;;;18.85;3.10;;;19.70;99.90;;;;;;4929631;29;20115;-84
2022/06/09 09:41:31;;;;;;;11.68;2.20;;;19.70;99.90;;;;;;4915117;29;20028;-85
2022/06/09 09:43:58;;;;;;;15.70;2.92;;;19.70;99.90;;;;;;4911290;29;20050;-85
2022/06/09 09:46:32;;;;;;;13.55;2.53;;;19.70;99.90;;;;;;4915295;29;20028;-85
2022/06/09 09:49:00;;;;;;;;;;;19.80;99.90;;;;;;4915814;29;20106;-85
2022/06/09 09:51:38;;;;;;;11.82;2.63;;;19.90;99.90;;;;;;4913909;29;19974;-85
2022/06/09 09:54:31;;;;;;;11.70;1.90;;;19.90;99.90;;;;;;4914822;29;20040;-85
2022/06/09 09:57:16;;;;;;;9.20;1.95;;;20.00;99.90;;;;;;4914837;29;20068;-85
2022/06/09 09:59:46;;;;;;;10.93;1.90;;;20.00;99.90;;;;;;4917519;29;20020;-85
2022/06/09 10:08:36;;;;;;;8.40;2.13;;;20.20;99.90;;;;;;4914782;29;20058;-84
2022/06/09 10:11:53;;;;;;;12.63;1.67;;;20.10;99.90;;;;;;4907139;29;20032;-85
2022/06/09 10:13:51;;;;;;;10.95;2.03;;;20.10;99.90;;;;;;4914731;29;20413;-85
2022/06/09 10:16:17;;;;;;;12.05;1.88;;;20.20;99.90;;;;;;4929042;29;20378;-85
2022/06/09 10:18:44;;;;;;;13.48;2.30;;;20.20;99.90;;;;;;4914544;29;20024;-85
2022/06/09 10:21:13;;;;;;;10.55;1.65;;;20.20;99.90;;;;;;4914255;29;20099;-87
2022/06/09 10:23:50;;;;;;;9.15;1.50;;;20.20;99.90;;;;;;4917021;29;20072;-86
2022/06/09 10:26:29;;;;;;;7.22;1.58;;;20.10;99.90;;;;;;4916769;29;20107;-87
2022/06/09 10:29:16;;;;;;;5.60;1.40;;;20.20;99.90;;;;;;4914327;29;20112;-85
2022/06/09 10:32:00;;;;;;;7.57;1.40;;;20.30;99.90;;;;;;4913739;29;20115;-84
2022/06/09 10:34:44;;;;;;;8.77;1.60;;;20.50;99.90;;;;;;4914558;29;20075;-84
2022/06/09 10:37:25;;;;;;;12.45;1.98;;;20.60;99.90;;;;;;4919326;29;20276;-83
2022/06/09 10:39:59;;;;;;;12.55;2.25;;;20.70;99.90;;;;;;4907646;29;20032;-84
2022/06/09 10:42:37;;;;;;;9.75;1.83;;;20.60;99.90;;;;;;4914233;29;20060;-83
2022/06/09 10:45:30;;;;;;;9.35;1.38;;;20.30;99.90;;;;;;4913633;29;20497;-84
2022/06/09 10:57:24;;;;;;;10.20;1.55;;;20.80;99.90;;;;;;4914167;29;20112;-82
2022/06/09 11:00:13;;;;;;;12.27;2.35;;;20.70;99.90;;;;;;4912649;29;20401;-85
2022/06/09 11:02:43;;;;;;;15.10;1.90;;;20.90;99.90;;;;;;4914060;29;20055;-85
2022/06/09 11:05:13;;;;;;;10.68;2.78;;;21.00;99.90;;;;;;4914044;29;20021;-85
2022/06/09 11:07:51;;;;;;;12.88;1.75;;;21.00;99.90;;;;;;4944369;28;20115;-85
2022/06/09 11:10:35;;;;;;;10.00;1.75;;;21.20;99.90;;;;;;4908978;29;20056;-84
2022/06/09 11:13:24;;;;;;;9.52;2.25;;;21.30;99.90;;;;;;4910713;29;20051;-84
2022/06/09 11:16:26;;;;;;;9.32;1.70;;;21.30;99.90;;;;;;4913693;29;20076;-84
2022/06/09 11:19:20;;;;;;;7.93;1.40;;;21.30;99.90;;;;;;4912275;29;20469;-84
2022/06/09 11:22:07;;;;;;;12.25;2.40;;;21.20;99.90;;;;;;4939224;28;20064;-84
2022/06/09 11:24:32;;;;;;;11.40;1.92;;;21.40;99.90;;;;;;4913758;29;20024;-85
2022/06/09 11:27:35;;;;;;;10.85;2.08;;;21.60;99.90;;;;;;4912407;29;20032;-85
2022/06/09 11:30:20;;;;;;;12.85;2.28;;;21.70;99.90;;;;;;4944305;28;20265;-84
2022/06/09 11:32:52;;;;;;;10.35;1.88;;;22.00;99.90;;;;;;4913174;29;20525;-84
2022/06/09 11:36:02;;;;;;;13.30;2.00;;;22.00;99.90;;;;;;4913717;29;20107;-85
2022/06/09 11:38:41;;;;;;;10.80;2.20;;;22.20;99.90;;;;;;4925853;29;20032;-85
2022/06/09 11:41:22;;;;;;;12.32;2.42;;;22.30;99.90;;;;;;4908804;29;20033;-85
2022/06/09 11:44:00;;;;;;;12.10;2.30;;;22.40;99.90;;;;;;4913569;29;20028;-84
2022/06/09 11:46:32;;;;;;;12.93;2.13;;;22.50;99.90;;;;;;4913670;29;20048;-84
2022/06/09 11:49:03;;;;;;;12.55;2.50;;;22.30;99.90;;;;;;4913549;29;20036;-85
2022/06/09 11:51:31;;;;;;;11.20;2.15;;;22.40;99.90;;;;;;4913450;29;20033;-85
2022/06/09 11:54:03;;;;;;;10.52;2.17;;;22.80;99.90;;;;;;4913369;29;20039;-85
2022/06/09 11:56:33;;;;;;;10.65;1.73;;;22.70;99.90;;;;;;4913278;29;20051;-85
2022/06/09 11:59:16;;;;;;;12.55;2.10;;;22.60;99.90;;;;;;4916849;29;20036;-85
2022/06/09 12:01:51;;;;;;;13.90;2.97;;;22.50;99.90;;;;;;4947512;28;20028;-85
2022/06/09 12:04:38;;;;;;;13.48;2.42;;;22.30;99.90;;;;;;4916970;29;20536;-85
2022/06/09 12:07:22;;;;;;;14.23;2.22;;;21.80;99.90;;;;;;4917014;29;20028;-85
2022/06/09 12:10:25;;;;;;;16.33;2.92;;;22.20;99.90;;;;;;4917090;29;20028;-85
2022/06/09 12:13:12;;;;;;;11.70;2.17;;;22.20;99.90;;;;;;4915633;29;20047;-85
2022/06/09 12:15:59;;;;;;;14.88;1.95;;;22.10;99.90;;;;;;4916584;29;20021;-85
2022/06/09 12:18:32;;;;;;;16.05;2.67;;;22.40;99.90;;;;;;4931253;29;20032;-85
2022/06/09 12:21:25;;;;;;;12.75;2.30;;;22.60;99.90;;;;;;4947336;28;20032;-85
2022/06/09 12:23:52;;;;;;;12.70;2.60;;;22.60;99.90;;;;;;4921377;29;20512;-84
2022/06/09 12:26:25;;;;;;;14.38;2.50;;;22.30;99.90;;;;;;4917142;29;20079;-85
2022/06/09 12:28:52;;;;;;;14.77;2.40;;;22.50;99.90;;;;;;4916720;29;20391;-85
2022/06/09 12:31:21;;;;;;;11.18;2.60;;;22.50;99.90;;;;;;4916388;29;20043;-85
2022/06/09 12:34:11;;;;;;;10.82;2.30;;;22.80;99.90;;;;;;4916466;29;20493;-85
2022/06/09 12:36:41;;;;;;;13.55;2.47;;;22.60;99.90;;;;;;4916484;29;20474;-85
2022/06/09 12:39:38;;;;;;;11.32;2.22;;;22.40;99.90;;;;;;4916317;29;20028;-85
2022/06/09 12:42:05;;;;;;;13.48;2.10;;;22.30;99.90;;;;;;4916067;29;20071;-85
2022/06/09 12:44:43;;;;;;;19.27;2.67;;;22.30;99.90;;;;;;4930710;29;20036;-85
2022/06/09 12:47:16;;;;;;;17.25;2.95;;;22.10;99.90;;;;;;4916390;29;20024;-85
2022/06/09 12:49:44;;;;;;;15.80;2.38;;;22.00;99.90;;;;;;4911769;29;20028;-85
2022/06/09 12:52:38;;;;;;;12.60;2.33;;;22.00;99.90;;;;;;4916285;29;20024;-85
2022/06/09 12:55:21;;;;;;;14.20;2.42;;;22.30;99.90;;;;;;4916174;29;20397;-85
2022/06/09 12:57:57;;;;;;;16.65;2.95;;;22.80;99.90;;;;;;4916210;29;20029;-85
2022/06/09 13:00:28;;;;;;;16.63;2.40;;;23.40;99.90;;;;;;4930528;29;20433;-85
2022/06/09 13:02:54;;;;;;;12.93;2.30;;;23.30;99.90;;;;;;4915985;29;20063;-85
2022/06/09 13:05:33;;;;;;;14.80;2.20;;;23.10;99.90;;;;;;4916310;29;20032;-85
2022/06/09 13:08:00;;;;;;;10.77;2.28;;;22.80;99.90;;;;;;4915609;29;20386;-85
2022/06/09 13:10:28;;;;;;;12.75;2.35;;;23.10;99.90;;;;;;4915918;29;20027;-85
2022/06/09 13:13:05;;;;;;;15.98;2.40;;;23.00;99.90;;;;;;4914406;29;20044;-85
2022/06/09 13:15:37;;;;;;;13.40;2.35;;;22.60;99.90;;;;;;4915365;29;20080;-85
2022/06/09 13:18:28;;;;;;;10.52;2.00;;;23.00;99.90;;;;;;4915749;29;20032;-85
2022/06/09 13:20:59;;;;;;;16.17;2.42;;;24.00;99.90;;;;;;4914866;29;20032;-87
2022/06/09 13:23:29;;;;;;;11.25;2.38;;;24.80;99.90;;;;;;4915762;29;20020;-85
2022/06/09 13:25:55;;;;;;;11.48;2.38;;;24.90;99.90;;;;;;4915629;29;20565;-85